LFBL/LIG METAR and TAF weather

Enter ICAO airport designator
Station Type Date Time Source
LFBL METAR 2021/07/30 08:00 UTC NOAA

LFBL 300800Z AUTO 27008KT 230V300 9999 BKN019 OVC043 17/12 Q1015 NOSIG


Station Type Date Time Source
LFBL Decoded METAR 2021/07/30 08:00 UTC NOAA

Limoges, France (LFBL) 45-52N 001-11E 402M
Jul 30, 2021 - 04:00 AM EDT / 2021.07.30 0800 UTC
Wind: from the W (270 degrees) at 9 MPH (8 KT) (direction variable):0
Visibility: greater than 7 mile(s):0
Sky conditions: overcast
Temperature: 62 F (17 C)
Dew Point: 53 F (12 C)
Relative Humidity: 72%
Pressure (altimeter): 29.97 in. Hg (1015 hPa)
ob: LFBL 300800Z AUTO 27008KT 230V300 9999 BKN019 OVC043 17/12 Q1015 NOSIG
cycle: 8

Station Type Date Time Source
LFBL TAF 2021/07/30 06:42 UTC NOAA

TAF TAF LFBL 300500Z 3006/3106 VRB03KT 9999 BKN035 OVC100
BECMG 3008/3010 26010KT
TEMPO 3012/3015 SCT025TCU BKN050
BECMG 3100/3102 BKN012
BECMG 3104/3106 SCT015

Example: see airport list